sensor_id;sensor_type;location;lat;lon;timestamp;P1;durP1;ratioP1;P2;durP2;ratioP2
37241;SDS011;23135;51.078;12.108;2022-07-23T00:00:54;5.00;;;3.90;;
37241;SDS011;23135;51.078;12.108;2022-07-23T00:03:20;9.10;;;4.65;;
37241;SDS011;23135;51.078;12.108;2022-07-23T00:05:45;6.60;;;4.97;;
37241;SDS011;23135;51.078;12.108;2022-07-23T00:08:11;6.45;;;4.20;;
37241;SDS011;23135;51.078;12.108;2022-07-23T00:10:36;8.27;;;4.43;;
37241;SDS011;23135;51.078;12.108;2022-07-23T00:13:02;10.25;;;4.50;;
37241;SDS011;23135;51.078;12.108;2022-07-23T00:15:28;4.90;;;4.22;;
37241;SDS011;23135;51.078;12.108;2022-07-23T00:17:54;7.35;;;4.32;;
37241;SDS011;23135;51.078;12.108;2022-07-23T00:20:19;5.38;;;4.40;;
37241;SDS011;23135;51.078;12.108;2022-07-23T00:22:52;5.07;;;4.45;;
37241;SDS011;23135;51.078;12.108;2022-07-23T00:25:20;6.10;;;3.90;;
37241;SDS011;23135;51.078;12.108;2022-07-23T00:27:47;10.35;;;4.90;;
37241;SDS011;23135;51.078;12.108;2022-07-23T00:30:13;7.20;;;4.80;;
37241;SDS011;23135;51.078;12.108;2022-07-23T00:32:47;7.35;;;4.30;;
37241;SDS011;23135;51.078;12.108;2022-07-23T00:35:19;5.88;;;4.97;;
37241;SDS011;23135;51.078;12.108;2022-07-23T00:37:46;7.38;;;4.15;;
37241;SDS011;23135;51.078;12.108;2022-07-23T00:40:12;8.35;;;4.80;;
37241;SDS011;23135;51.078;12.108;2022-07-23T00:42:38;15.10;;;5.13;;
37241;SDS011;23135;51.078;12.108;2022-07-23T00:45:04;7.13;;;4.25;;
37241;SDS011;23135;51.078;12.108;2022-07-23T00:47:30;9.07;;;4.72;;
37241;SDS011;23135;51.078;12.108;2022-07-23T00:49:55;7.32;;;4.40;;
37241;SDS011;23135;51.078;12.108;2022-07-23T00:52:21;5.05;;;4.60;;
37241;SDS011;23135;51.078;12.108;2022-07-23T00:54:47;6.45;;;4.88;;
37241;SDS011;23135;51.078;12.108;2022-07-23T00:57:13;9.40;;;4.82;;
37241;SDS011;23135;51.078;12.108;2022-07-23T00:59:40;7.38;;;5.53;;
37241;SDS011;23135;51.078;12.108;2022-07-23T01:02:05;10.13;;;5.53;;
37241;SDS011;23135;51.078;12.108;2022-07-23T01:04:31;8.40;;;4.97;;
37241;SDS011;23135;51.078;12.108;2022-07-23T01:06:57;8.35;;;5.32;;
37241;SDS011;23135;51.078;12.108;2022-07-23T01:09:23;6.18;;;5.38;;
37241;SDS011;23135;51.078;12.108;2022-07-23T01:11:48;10.32;;;4.75;;
37241;SDS011;23135;51.078;12.108;2022-07-23T01:14:16;6.47;;;5.72;;
37241;SDS011;23135;51.078;12.108;2022-07-23T01:16:43;7.10;;;5.00;;
37241;SDS011;23135;51.078;12.108;2022-07-23T01:19:10;7.43;;;5.05;;
37241;SDS011;23135;51.078;12.108;2022-07-23T01:21:37;7.22;;;5.18;;
37241;SDS011;23135;51.078;12.108;2022-07-23T01:24:04;5.68;;;5.15;;
37241;SDS011;23135;51.078;12.108;2022-07-23T01:26:31;14.13;;;5.57;;
37241;SDS011;23135;51.078;12.108;2022-07-23T01:28:56;7.28;;;4.70;;
37241;SDS011;23135;51.078;12.108;2022-07-23T01:31:22;6.40;;;5.38;;
37241;SDS011;23135;51.078;12.108;2022-07-23T01:33:48;7.40;;;5.63;;
37241;SDS011;23135;51.078;12.108;2022-07-23T01:36:14;9.65;;;5.65;;
37241;SDS011;23135;51.078;12.108;2022-07-23T01:38:39;8.25;;;6.35;;
37241;SDS011;23135;51.078;12.108;2022-07-23T01:41:05;7.75;;;4.93;;
37241;SDS011;23135;51.078;12.108;2022-07-23T01:43:30;5.78;;;5.18;;
37241;SDS011;23135;51.078;12.108;2022-07-23T01:45:56;10.43;;;5.97;;
37241;SDS011;23135;51.078;12.108;2022-07-23T01:48:22;8.02;;;4.88;;
37241;SDS011;23135;51.078;12.108;2022-07-23T01:50:48;6.32;;;4.90;;
37241;SDS011;23135;51.078;12.108;2022-07-23T01:53:14;6.15;;;5.32;;
37241;SDS011;23135;51.078;12.108;2022-07-23T01:55:40;12.00;;;6.00;;
37241;SDS011;23135;51.078;12.108;2022-07-23T01:58:06;11.68;;;5.75;;
37241;SDS011;23135;51.078;12.108;2022-07-23T02:00:32;6.75;;;5.60;;
37241;SDS011;23135;51.078;12.108;2022-07-23T02:02:57;6.57;;;5.57;;
37241;SDS011;23135;51.078;12.108;2022-07-23T02:05:23;8.27;;;5.40;;
37241;SDS011;23135;51.078;12.108;2022-07-23T02:07:49;7.40;;;5.55;;
37241;SDS011;23135;51.078;12.108;2022-07-23T02:10:15;11.82;;;5.38;;
37241;SDS011;23135;51.078;12.108;2022-07-23T02:12:41;10.82;;;5.15;;
37241;SDS011;23135;51.078;12.108;2022-07-23T02:15:07;5.90;;;5.18;;
37241;SDS011;23135;51.078;12.108;2022-07-23T02:17:33;7.07;;;4.72;;
37241;SDS011;23135;51.078;12.108;2022-07-23T02:19:59;8.90;;;5.45;;
37241;SDS011;23135;51.078;12.108;2022-07-23T02:22:25;8.77;;;6.07;;
37241;SDS011;23135;51.078;12.108;2022-07-23T02:24:50;10.63;;;5.72;;
37241;SDS011;23135;51.078;12.108;2022-07-23T02:27:16;9.32;;;6.35;;
37241;SDS011;23135;51.078;12.108;2022-07-23T02:29:42;10.52;;;6.65;;
37241;SDS011;23135;51.078;12.108;2022-07-23T02:32:07;6.55;;;5.93;;
37241;SDS011;23135;51.078;12.108;2022-07-23T02:34:33;10.00;;;7.35;;
37241;SDS011;23135;51.078;12.108;2022-07-23T02:36:58;8.98;;;5.40;;
37241;SDS011;23135;51.078;12.108;2022-07-23T02:39:24;8.00;;;5.90;;
37241;SDS011;23135;51.078;12.108;2022-07-23T02:41:49;10.15;;;6.43;;
37241;SDS011;23135;51.078;12.108;2022-07-23T02:44:15;10.57;;;5.85;;
37241;SDS011;23135;51.078;12.108;2022-07-23T02:46:41;6.55;;;5.95;;
37241;SDS011;23135;51.078;12.108;2022-07-23T02:49:06;9.95;;;5.80;;
37241;SDS011;23135;51.078;12.108;2022-07-23T02:51:32;8.35;;;6.43;;
37241;SDS011;23135;51.078;12.108;2022-07-23T02:53:57;7.53;;;5.10;;
37241;SDS011;23135;51.078;12.108;2022-07-23T02:56:23;7.85;;;6.25;;
37241;SDS011;23135;51.078;12.108;2022-07-23T02:58:48;7.32;;;5.82;;
37241;SDS011;23135;51.078;12.108;2022-07-23T03:01:14;9.38;;;5.97;;
37241;SDS011;23135;51.078;12.108;2022-07-23T03:03:39;10.07;;;5.82;;
37241;SDS011;23135;51.078;12.108;2022-07-23T03:06:05;11.23;;;5.28;;
37241;SDS011;23135;51.078;12.108;2022-07-23T03:08:31;9.57;;;5.70;;
37241;SDS011;23135;51.078;12.108;2022-07-23T03:10:56;12.77;;;7.72;;
37241;SDS011;23135;51.078;12.108;2022-07-23T03:13:22;12.00;;;6.25;;
37241;SDS011;23135;51.078;12.108;2022-07-23T03:15:48;8.75;;;5.93;;
37241;SDS011;23135;51.078;12.108;2022-07-23T03:18:13;11.82;;;6.22;;
37241;SDS011;23135;51.078;12.108;2022-07-23T03:20:39;9.18;;;6.38;;
37241;SDS011;23135;51.078;12.108;2022-07-23T03:23:04;8.52;;;6.22;;
37241;SDS011;23135;51.078;12.108;2022-07-23T03:25:30;10.68;;;6.55;;
37241;SDS011;23135;51.078;12.108;2022-07-23T03:27:56;8.18;;;5.82;;
37241;SDS011;23135;51.078;12.108;2022-07-23T03:30:21;9.95;;;5.75;;
37241;SDS011;23135;51.078;12.108;2022-07-23T03:32:47;8.27;;;5.95;;
37241;SDS011;23135;51.078;12.108;2022-07-23T03:35:12;9.00;;;5.97;;
37241;SDS011;23135;51.078;12.108;2022-07-23T03:37:38;11.10;;;5.05;;
37241;SDS011;23135;51.078;12.108;2022-07-23T03:40:04;9.27;;;5.57;;
37241;SDS011;23135;51.078;12.108;2022-07-23T03:42:30;10.40;;;6.50;;
37241;SDS011;23135;51.078;12.108;2022-07-23T03:44:56;7.13;;;5.60;;
37241;SDS011;23135;51.078;12.108;2022-07-23T03:47:21;6.20;;;5.32;;
37241;SDS011;23135;51.078;12.108;2022-07-23T03:49:47;9.55;;;5.95;;
37241;SDS011;23135;51.078;12.108;2022-07-23T03:52:13;7.60;;;5.15;;
37241;SDS011;23135;51.078;12.108;2022-07-23T03:54:39;14.10;;;7.03;;
37241;SDS011;23135;51.078;12.108;2022-07-23T03:57:04;10.55;;;6.28;;
37241;SDS011;23135;51.078;12.108;2022-07-23T03:59:30;10.10;;;6.38;;
37241;SDS011;23135;51.078;12.108;2022-07-23T04:01:56;11.40;;;5.93;;
37241;SDS011;23135;51.078;12.108;2022-07-23T04:04:21;12.45;;;5.97;;
37241;SDS011;23135;51.078;12.108;2022-07-23T04:06:47;9.45;;;5.68;;
37241;SDS011;23135;51.078;12.108;2022-07-23T04:09:12;8.80;;;4.70;;
37241;SDS011;23135;51.078;12.108;2022-07-23T04:11:38;9.07;;;5.30;;
37241;SDS011;23135;51.078;12.108;2022-07-23T04:14:04;7.70;;;5.85;;
37241;SDS011;23135;51.078;12.108;2022-07-23T04:16:29;8.20;;;5.78;;
37241;SDS011;23135;51.078;12.108;2022-07-23T04:18:56;14.38;;;5.70;;
37241;SDS011;23135;51.078;12.108;2022-07-23T04:21:22;11.00;;;6.53;;
37241;SDS011;23135;51.078;12.108;2022-07-23T04:23:48;11.45;;;6.68;;
37241;SDS011;23135;51.078;12.108;2022-07-23T04:26:14;11.00;;;7.28;;
37241;SDS011;23135;51.078;12.108;2022-07-23T04:28:40;14.00;;;7.03;;
37241;SDS011;23135;51.078;12.108;2022-07-23T04:31:05;12.65;;;7.28;;
37241;SDS011;23135;51.078;12.108;2022-07-23T04:33:31;9.45;;;6.43;;
37241;SDS011;23135;51.078;12.108;2022-07-23T04:35:56;13.52;;;7.30;;
37241;SDS011;23135;51.078;12.108;2022-07-23T04:38:22;10.48;;;5.50;;
37241;SDS011;23135;51.078;12.108;2022-07-23T04:40:47;18.85;;;6.43;;
37241;SDS011;23135;51.078;12.108;2022-07-23T04:43:13;15.10;;;6.53;;
37241;SDS011;23135;51.078;12.108;2022-07-23T04:45:39;6.72;;;5.28;;
37241;SDS011;23135;51.078;12.108;2022-07-23T04:48:04;11.75;;;5.88;;
37241;SDS011;23135;51.078;12.108;2022-07-23T04:50:30;9.35;;;5.88;;
37241;SDS011;23135;51.078;12.108;2022-07-23T04:52:55;8.63;;;6.43;;
37241;SDS011;23135;51.078;12.108;2022-07-23T04:55:21;8.95;;;5.88;;
37241;SDS011;23135;51.078;12.108;2022-07-23T04:57:46;12.35;;;6.28;;
37241;SDS011;23135;51.078;12.108;2022-07-23T05:00:12;7.38;;;6.43;;
37241;SDS011;23135;51.078;12.108;2022-07-23T05:02:38;7.80;;;5.57;;
37241;SDS011;23135;51.078;12.108;2022-07-23T05:05:03;10.07;;;5.28;;
37241;SDS011;23135;51.078;12.108;2022-07-23T05:07:29;10.10;;;5.53;;
37241;SDS011;23135;51.078;12.108;2022-07-23T05:09:55;11.30;;;5.65;;
37241;SDS011;23135;51.078;12.108;2022-07-23T05:12:20;12.20;;;5.75;;
37241;SDS011;23135;51.078;12.108;2022-07-23T05:14:46;12.93;;;6.20;;
37241;SDS011;23135;51.078;12.108;2022-07-23T05:17:11;9.10;;;6.13;;
37241;SDS011;23135;51.078;12.108;2022-07-23T05:19:37;11.10;;;5.40;;
37241;SDS011;23135;51.078;12.108;2022-07-23T05:22:03;8.75;;;6.25;;
37241;SDS011;23135;51.078;12.108;2022-07-23T05:24:28;12.88;;;5.63;;
37241;SDS011;23135;51.078;12.108;2022-07-23T05:26:54;7.90;;;5.53;;
37241;SDS011;23135;51.078;12.108;2022-07-23T05:29:19;11.95;;;4.68;;
37241;SDS011;23135;51.078;12.108;2022-07-23T05:31:45;9.60;;;4.50;;
37241;SDS011;23135;51.078;12.108;2022-07-23T05:34:11;9.25;;;5.20;;
37241;SDS011;23135;51.078;12.108;2022-07-23T05:36:36;11.05;;;5.63;;
37241;SDS011;23135;51.078;12.108;2022-07-23T05:39:02;10.48;;;5.75;;
37241;SDS011;23135;51.078;12.108;2022-07-23T05:41:28;11.32;;;5.07;;
37241;SDS011;23135;51.078;12.108;2022-07-23T05:43:54;9.38;;;6.50;;
37241;SDS011;23135;51.078;12.108;2022-07-23T05:46:19;7.88;;;6.10;;
37241;SDS011;23135;51.078;12.108;2022-07-23T05:48:45;10.40;;;6.05;;
37241;SDS011;23135;51.078;12.108;2022-07-23T05:51:18;13.48;;;5.32;;
37241;SDS011;23135;51.078;12.108;2022-07-23T05:53:47;9.77;;;5.90;;
37241;SDS011;23135;51.078;12.108;2022-07-23T05:56:14;12.55;;;6.60;;
37241;SDS011;23135;51.078;12.108;2022-07-23T05:58:39;7.97;;;5.00;;
37241;SDS011;23135;51.078;12.108;2022-07-23T06:01:05;9.52;;;5.20;;
37241;SDS011;23135;51.078;12.108;2022-07-23T06:03:30;11.48;;;5.95;;
37241;SDS011;23135;51.078;12.108;2022-07-23T06:05:56;13.05;;;4.78;;
37241;SDS011;23135;51.078;12.108;2022-07-23T06:08:22;9.90;;;5.18;;
37241;SDS011;23135;51.078;12.108;2022-07-23T06:10:47;7.72;;;5.25;;
37241;SDS011;23135;51.078;12.108;2022-07-23T06:13:13;13.77;;;5.95;;
37241;SDS011;23135;51.078;12.108;2022-07-23T06:15:39;12.20;;;5.10;;
37241;SDS011;23135;51.078;12.108;2022-07-23T06:18:05;9.85;;;4.95;;
37241;SDS011;23135;51.078;12.108;2022-07-23T06:20:30;7.43;;;4.60;;
37241;SDS011;23135;51.078;12.108;2022-07-23T06:22:56;9.68;;;4.20;;
37241;SDS011;23135;51.078;12.108;2022-07-23T06:25:21;11.48;;;4.38;;
37241;SDS011;23135;51.078;12.108;2022-07-23T06:27:47;9.88;;;4.47;;
37241;SDS011;23135;51.078;12.108;2022-07-23T06:30:16;7.05;;;3.78;;
37241;SDS011;23135;51.078;12.108;2022-07-23T06:32:42;6.57;;;3.92;;
37241;SDS011;23135;51.078;12.108;2022-07-23T06:35:08;9.23;;;3.95;;
37241;SDS011;23135;51.078;12.108;2022-07-23T06:37:35;7.43;;;3.85;;
37241;SDS011;23135;51.078;12.108;2022-07-23T06:40:01;7.20;;;3.97;;
37241;SDS011;23135;51.078;12.108;2022-07-23T06:42:27;5.47;;;3.15;;
37241;SDS011;23135;51.078;12.108;2022-07-23T06:44:53;7.10;;;3.55;;
37241;SDS011;23135;51.078;12.108;2022-07-23T06:47:18;4.18;;;3.33;;
37241;SDS011;23135;51.078;12.108;2022-07-23T06:49:44;6.85;;;3.70;;
37241;SDS011;23135;51.078;12.108;2022-07-23T06:52:09;7.03;;;3.63;;
37241;SDS011;23135;51.078;12.108;2022-07-23T06:54:35;8.82;;;3.78;;
37241;SDS011;23135;51.078;12.108;2022-07-23T06:57:00;7.90;;;3.60;;
37241;SDS011;23135;51.078;12.108;2022-07-23T06:59:26;5.97;;;3.28;;
37241;SDS011;23135;51.078;12.108;2022-07-23T07:01:52;6.95;;;3.45;;
37241;SDS011;23135;51.078;12.108;2022-07-23T07:04:17;6.68;;;3.38;;
37241;SDS011;23135;51.078;12.108;2022-07-23T07:06:43;3.80;;;2.72;;
37241;SDS011;23135;51.078;12.108;2022-07-23T07:09:08;6.00;;;3.70;;
37241;SDS011;23135;51.078;12.108;2022-07-23T07:11:34;10.20;;;3.90;;
37241;SDS011;23135;51.078;12.108;2022-07-23T07:14:00;8.43;;;3.67;;
37241;SDS011;23135;51.078;12.108;2022-07-23T07:16:25;6.18;;;3.20;;
37241;SDS011;23135;51.078;12.108;2022-07-23T07:18:51;8.30;;;3.00;;
37241;SDS011;23135;51.078;12.108;2022-07-23T07:21:16;6.70;;;3.67;;
37241;SDS011;23135;51.078;12.108;2022-07-23T07:23:42;5.07;;;3.17;;
37241;SDS011;23135;51.078;12.108;2022-07-23T07:26:07;4.88;;;3.38;;
37241;SDS011;23135;51.078;12.108;2022-07-23T07:28:33;5.07;;;3.58;;
37241;SDS011;23135;51.078;12.108;2022-07-23T07:30:58;7.60;;;3.65;;
37241;SDS011;23135;51.078;12.108;2022-07-23T07:33:24;9.30;;;4.30;;
37241;SDS011;23135;51.078;12.108;2022-07-23T07:35:50;6.05;;;4.78;;
37241;SDS011;23135;51.078;12.108;2022-07-23T07:38:15;5.50;;;3.63;;
37241;SDS011;23135;51.078;12.108;2022-07-23T07:40:41;7.57;;;3.95;;
37241;SDS011;23135;51.078;12.108;2022-07-23T07:43:06;11.10;;;4.18;;
37241;SDS011;23135;51.078;12.108;2022-07-23T07:45:32;7.43;;;3.47;;
37241;SDS011;23135;51.078;12.108;2022-07-23T07:47:58;5.32;;;4.13;;
37241;SDS011;23135;51.078;12.108;2022-07-23T07:50:23;7.97;;;5.30;;
37241;SDS011;23135;51.078;12.108;2022-07-23T07:52:49;11.52;;;4.97;;
37241;SDS011;23135;51.078;12.108;2022-07-23T07:55:15;5.43;;;3.85;;
37241;SDS011;23135;51.078;12.108;2022-07-23T07:57:41;9.52;;;5.05;;
37241;SDS011;23135;51.078;12.108;2022-07-23T08:00:07;7.65;;;5.28;;
37241;SDS011;23135;51.078;12.108;2022-07-23T08:02:44;10.98;;;4.43;;
37241;SDS011;23135;51.078;12.108;2022-07-23T08:05:14;8.63;;;5.47;;
37241;SDS011;23135;51.078;12.108;2022-07-23T08:07:43;10.48;;;4.75;;
37241;SDS011;23135;51.078;12.108;2022-07-23T08:10:09;9.73;;;5.97;;
37241;SDS011;23135;51.078;12.108;2022-07-23T08:12:55;10.95;;;5.65;;
37241;SDS011;23135;51.078;12.108;2022-07-23T08:15:26;7.32;;;6.60;;
37241;SDS011;23135;51.078;12.108;2022-07-23T08:17:52;13.63;;;8.23;;
37241;SDS011;23135;51.078;12.108;2022-07-23T08:20:20;10.13;;;8.25;;
37241;SDS011;23135;51.078;12.108;2022-07-23T08:22:51;12.27;;;8.30;;
37241;SDS011;23135;51.078;12.108;2022-07-23T08:25:24;13.73;;;9.57;;
37241;SDS011;23135;51.078;12.108;2022-07-23T08:27:52;10.43;;;9.23;;
37241;SDS011;23135;51.078;12.108;2022-07-23T08:30:18;14.30;;;10.82;;
37241;SDS011;23135;51.078;12.108;2022-07-23T08:33:03;12.35;;;8.80;;
37241;SDS011;23135;51.078;12.108;2022-07-23T08:35:38;13.05;;;7.90;;
37241;SDS011;23135;51.078;12.108;2022-07-23T08:38:09;12.88;;;10.13;;
37241;SDS011;23135;51.078;12.108;2022-07-23T08:40:41;15.68;;;11.02;;
37241;SDS011;23135;51.078;12.108;2022-07-23T08:43:11;12.65;;;10.48;;
37241;SDS011;23135;51.078;12.108;2022-07-23T08:45:41;14.48;;;9.65;;
37241;SDS011;23135;51.078;12.108;2022-07-23T08:48:12;14.77;;;10.68;;
37241;SDS011;23135;51.078;12.108;2022-07-23T08:50:41;12.45;;;10.95;;
37241;SDS011;23135;51.078;12.108;2022-07-23T08:53:08;12.43;;;10.15;;
37241;SDS011;23135;51.078;12.108;2022-07-23T08:55:35;10.43;;;8.75;;
37241;SDS011;23135;51.078;12.108;2022-07-23T08:58:01;14.02;;;8.73;;
37241;SDS011;23135;51.078;12.108;2022-07-23T09:00:27;10.18;;;8.15;;
37241;SDS011;23135;51.078;12.108;2022-07-23T09:02:53;12.98;;;9.13;;
37241;SDS011;23135;51.078;12.108;2022-07-23T09:05:19;16.40;;;9.90;;
37241;SDS011;23135;51.078;12.108;2022-07-23T09:13:30;21.50;;;18.05;;
37241;SDS011;23135;51.078;12.108;2022-07-23T09:16:18;31.63;;;26.45;;
37241;SDS011;23135;51.078;12.108;2022-07-23T09:18:52;30.05;;;26.80;;
37241;SDS011;23135;51.078;12.108;2022-07-23T09:21:23;36.47;;;31.38;;
37241;SDS011;23135;51.078;12.108;2022-07-23T09:23:51;38.03;;;32.17;;
37241;SDS011;23135;51.078;12.108;2022-07-23T09:29:11;40.88;;;31.88;;
37241;SDS011;23135;51.078;12.108;2022-07-23T09:31:50;36.10;;;30.38;;
37241;SDS011;23135;51.078;12.108;2022-07-23T09:36:51;35.17;;;30.55;;
37241;SDS011;23135;51.078;12.108;2022-07-23T09:39:25;35.15;;;31.13;;
37241;SDS011;23135;51.078;12.108;2022-07-23T09:41:52;34.22;;;30.35;;
37241;SDS011;23135;51.078;12.108;2022-07-23T09:44:19;31.58;;;28.17;;
37241;SDS011;23135;51.078;12.108;2022-07-23T09:46:46;33.47;;;28.65;;
37241;SDS011;23135;51.078;12.108;2022-07-23T09:49:17;33.80;;;28.73;;
37241;SDS011;23135;51.078;12.108;2022-07-23T09:51:50;27.67;;;23.83;;
37241;SDS011;23135;51.078;12.108;2022-07-23T09:54:51;26.73;;;22.15;;
37241;SDS011;23135;51.078;12.108;2022-07-23T09:57:10;30.35;;;23.70;;
37241;SDS011;23135;51.078;12.108;2022-07-23T09:59:42;30.10;;;23.58;;
37241;SDS011;23135;51.078;12.108;2022-07-23T10:02:10;27.85;;;22.88;;
37241;SDS011;23135;51.078;12.108;2022-07-23T10:04:37;25.70;;;21.25;;
37241;SDS011;23135;51.078;12.108;2022-07-23T10:07:04;21.75;;;19.02;;
37241;SDS011;23135;51.078;12.108;2022-07-23T10:09:33;17.27;;;14.43;;
37241;SDS011;23135;51.078;12.108;2022-07-23T10:12:00;15.70;;;13.35;;
37241;SDS011;23135;51.078;12.108;2022-07-23T10:14:39;15.07;;;13.07;;
37241;SDS011;23135;51.078;12.108;2022-07-23T10:17:05;16.30;;;13.07;;
37241;SDS011;23135;51.078;12.108;2022-07-23T10:19:32;11.85;;;10.45;;
37241;SDS011;23135;51.078;12.108;2022-07-23T10:22:00;10.15;;;8.55;;
37241;SDS011;23135;51.078;12.108;2022-07-23T10:27:33;12.05;;;9.10;;
37241;SDS011;23135;51.078;12.108;2022-07-23T10:30:09;11.00;;;9.90;;
37241;SDS011;23135;51.078;12.108;2022-07-23T10:38:51;11.30;;;8.90;;
37241;SDS011;23135;51.078;12.108;2022-07-23T10:41:33;9.68;;;8.68;;
37241;SDS011;23135;51.078;12.108;2022-07-23T10:44:14;11.40;;;8.65;;
37241;SDS011;23135;51.078;12.108;2022-07-23T10:49:41;8.45;;;7.63;;
37241;SDS011;23135;51.078;12.108;2022-07-23T10:54:42;10.10;;;8.70;;
37241;SDS011;23135;51.078;12.108;2022-07-23T10:57:23;11.55;;;9.18;;
37241;SDS011;23135;51.078;12.108;2022-07-23T11:02:30;10.98;;;9.45;;
37241;SDS011;23135;51.078;12.108;2022-07-23T11:05:06;11.98;;;10.70;;
37241;SDS011;23135;51.078;12.108;2022-07-23T11:07:39;13.43;;;11.65;;
37241;SDS011;23135;51.078;12.108;2022-07-23T11:10:31;13.37;;;11.97;;
37241;SDS011;23135;51.078;12.108;2022-07-23T11:24:03;17.25;;;15.55;;
37241;SDS011;23135;51.078;12.108;2022-07-23T11:26:49;17.33;;;15.73;;
37241;SDS011;23135;51.078;12.108;2022-07-23T11:34:49;17.70;;;15.95;;
37241;SDS011;23135;51.078;12.108;2022-07-23T11:37:31;22.70;;;20.27;;
37241;SDS011;23135;51.078;12.108;2022-07-23T11:39:59;21.65;;;17.98;;
37241;SDS011;23135;51.078;12.108;2022-07-23T11:42:26;20.40;;;17.63;;
37241;SDS011;23135;51.078;12.108;2022-07-23T11:44:52;18.50;;;16.60;;
37241;SDS011;23135;51.078;12.108;2022-07-23T11:47:24;20.80;;;18.73;;
37241;SDS011;23135;51.078;12.108;2022-07-23T11:49:54;19.55;;;17.67;;
37241;SDS011;23135;51.078;12.108;2022-07-23T11:52:21;21.17;;;18.60;;
37241;SDS011;23135;51.078;12.108;2022-07-23T11:54:59;17.83;;;16.10;;
37241;SDS011;23135;51.078;12.108;2022-07-23T11:57:27;19.83;;;17.67;;
37241;SDS011;23135;51.078;12.108;2022-07-23T12:00:02;22.42;;;20.05;;
37241;SDS011;23135;51.078;12.108;2022-07-23T12:02:34;20.02;;;17.90;;
37241;SDS011;23135;51.078;12.108;2022-07-23T12:05:00;20.23;;;18.33;;
37241;SDS011;23135;51.078;12.108;2022-07-23T12:09:54;20.15;;;17.92;;
37241;SDS011;23135;51.078;12.108;2022-07-23T12:12:21;19.05;;;17.05;;
37241;SDS011;23135;51.078;12.108;2022-07-23T12:14:48;20.65;;;17.95;;
37241;SDS011;23135;51.078;12.108;2022-07-23T12:17:15;21.83;;;19.08;;
37241;SDS011;23135;51.078;12.108;2022-07-23T12:19:41;21.88;;;19.88;;
37241;SDS011;23135;51.078;12.108;2022-07-23T12:22:07;23.85;;;21.27;;
37241;SDS011;23135;51.078;12.108;2022-07-23T12:27:21;24.30;;;21.67;;
37241;SDS011;23135;51.078;12.108;2022-07-23T12:29:47;26.52;;;22.63;;
37241;SDS011;23135;51.078;12.108;2022-07-23T12:32:21;21.83;;;19.52;;
37241;SDS011;23135;51.078;12.108;2022-07-23T12:37:48;24.40;;;20.60;;
37241;SDS011;23135;51.078;12.108;2022-07-23T12:40:54;23.00;;;20.70;;
37241;SDS011;23135;51.078;12.108;2022-07-23T12:43:27;20.83;;;17.67;;
37241;SDS011;23135;51.078;12.108;2022-07-23T12:45:55;19.45;;;17.45;;
37241;SDS011;23135;51.078;12.108;2022-07-23T12:48:27;20.30;;;18.10;;
37241;SDS011;23135;51.078;12.108;2022-07-23T12:50:58;16.42;;;14.82;;
37241;SDS011;23135;51.078;12.108;2022-07-23T12:53:32;22.73;;;17.75;;
37241;SDS011;23135;51.078;12.108;2022-07-23T13:03:58;17.25;;;15.43;;
37241;SDS011;23135;51.078;12.108;2022-07-23T13:06:37;16.10;;;14.40;;
37241;SDS011;23135;51.078;12.108;2022-07-23T13:09:06;17.10;;;14.13;;
37241;SDS011;23135;51.078;12.108;2022-07-23T13:11:33;18.00;;;14.10;;
37241;SDS011;23135;51.078;12.108;2022-07-23T13:13:59;14.48;;;12.68;;
37241;SDS011;23135;51.078;12.108;2022-07-23T13:16:29;16.75;;;12.63;;
37241;SDS011;23135;51.078;12.108;2022-07-23T13:18:56;10.38;;;9.38;;
37241;SDS011;23135;51.078;12.108;2022-07-23T13:21:23;14.13;;;10.40;;
37241;SDS011;23135;51.078;12.108;2022-07-23T13:23:49;10.85;;;9.95;;
37241;SDS011;23135;51.078;12.108;2022-07-23T13:26:15;12.95;;;10.85;;
37241;SDS011;23135;51.078;12.108;2022-07-23T13:28:41;10.82;;;9.73;;
37241;SDS011;23135;51.078;12.108;2022-07-23T13:31:07;10.18;;;9.18;;
37241;SDS011;23135;51.078;12.108;2022-07-23T13:33:33;11.85;;;10.65;;
37241;SDS011;23135;51.078;12.108;2022-07-23T13:35:58;10.90;;;9.15;;
37241;SDS011;23135;51.078;12.108;2022-07-23T13:38:24;9.52;;;8.52;;
37241;SDS011;23135;51.078;12.108;2022-07-23T13:40:50;10.63;;;9.55;;
37241;SDS011;23135;51.078;12.108;2022-07-23T13:43:18;15.85;;;10.82;;
37241;SDS011;23135;51.078;12.108;2022-07-23T13:45:46;10.05;;;9.05;;
37241;SDS011;23135;51.078;12.108;2022-07-23T13:48:13;10.48;;;9.45;;
37241;SDS011;23135;51.078;12.108;2022-07-23T13:50:39;9.80;;;8.80;;
37241;SDS011;23135;51.078;12.108;2022-07-23T13:53:06;10.30;;;8.38;;
37241;SDS011;23135;51.078;12.108;2022-07-23T13:55:37;9.88;;;8.50;;
37241;SDS011;23135;51.078;12.108;2022-07-23T13:58:05;9.63;;;8.68;;
37241;SDS011;23135;51.078;12.108;2022-07-23T14:00:32;9.30;;;8.40;;
37241;SDS011;23135;51.078;12.108;2022-07-23T14:02:59;10.88;;;8.20;;
37241;SDS011;23135;51.078;12.108;2022-07-23T14:05:25;11.20;;;8.73;;
37241;SDS011;23135;51.078;12.108;2022-07-23T14:07:52;10.65;;;8.10;;
37241;SDS011;23135;51.078;12.108;2022-07-23T14:10:18;8.57;;;7.68;;
37241;SDS011;23135;51.078;12.108;2022-07-23T14:12:45;13.55;;;9.32;;
37241;SDS011;23135;51.078;12.108;2022-07-23T14:15:12;10.07;;;8.65;;
37241;SDS011;23135;51.078;12.108;2022-07-23T14:17:40;11.93;;;8.13;;
37241;SDS011;23135;51.078;12.108;2022-07-23T14:20:07;9.85;;;8.85;;
37241;SDS011;23135;51.078;12.108;2022-07-23T14:22:34;9.00;;;8.10;;
37241;SDS011;23135;51.078;12.108;2022-07-23T14:25:00;8.75;;;7.55;;
37241;SDS011;23135;51.078;12.108;2022-07-23T14:27:26;11.55;;;8.82;;
37241;SDS011;23135;51.078;12.108;2022-07-23T14:29:53;10.00;;;8.45;;
37241;SDS011;23135;51.078;12.108;2022-07-23T14:32:19;9.88;;;7.38;;
37241;SDS011;23135;51.078;12.108;2022-07-23T14:34:45;9.13;;;6.63;;
37241;SDS011;23135;51.078;12.108;2022-07-23T14:37:11;8.57;;;7.63;;
37241;SDS011;23135;51.078;12.108;2022-07-23T14:39:37;9.57;;;8.68;;
37241;SDS011;23135;51.078;12.108;2022-07-23T14:42:06;7.82;;;6.65;;
37241;SDS011;23135;51.078;12.108;2022-07-23T14:44:32;10.48;;;6.07;;
37241;SDS011;23135;51.078;12.108;2022-07-23T14:46:59;7.60;;;5.70;;
37241;SDS011;23135;51.078;12.108;2022-07-23T14:49:25;6.75;;;5.15;;
37241;SDS011;23135;51.078;12.108;2022-07-23T14:51:51;6.70;;;5.50;;
37241;SDS011;23135;51.078;12.108;2022-07-23T14:54:17;5.82;;;5.30;;
37241;SDS011;23135;51.078;12.108;2022-07-23T14:56:43;6.90;;;6.03;;
37241;SDS011;23135;51.078;12.108;2022-07-23T14:59:08;7.25;;;5.88;;
37241;SDS011;23135;51.078;12.108;2022-07-23T15:01:34;6.75;;;5.95;;
37241;SDS011;23135;51.078;12.108;2022-07-23T15:04:01;6.20;;;5.60;;
37241;SDS011;23135;51.078;12.108;2022-07-23T15:06:28;6.43;;;5.07;;
37241;SDS011;23135;51.078;12.108;2022-07-23T15:08:53;5.30;;;4.80;;
37241;SDS011;23135;51.078;12.108;2022-07-23T15:11:19;7.53;;;4.40;;
37241;SDS011;23135;51.078;12.108;2022-07-23T15:13:45;4.53;;;4.13;;
37241;SDS011;23135;51.078;12.108;2022-07-23T15:16:10;5.88;;;3.78;;
37241;SDS011;23135;51.078;12.108;2022-07-23T15:18:36;4.78;;;4.07;;
37241;SDS011;23135;51.078;12.108;2022-07-23T15:21:02;7.05;;;5.15;;
37241;SDS011;23135;51.078;12.108;2022-07-23T15:23:28;10.23;;;5.13;;
37241;SDS011;23135;51.078;12.108;2022-07-23T15:25:54;6.03;;;4.55;;
37241;SDS011;23135;51.078;12.108;2022-07-23T15:28:20;4.57;;;4.18;;